Kamsack, Canada
Current Conditions -  °F | °C
As of 12:22 PM on Wednesday 28 Jan 2015 (Local Time) from CYQV Reporting Station
Light Snow Light Snow  
Wind Chill:   Ceiling: 2200
Heat Index: 14°   Visibility: 7mi
Dew Point: 12°   Wind: 10mph
Humidity: 93%   Direction: 340°NNW
Pressure: 30.02"   Gusts: NA
Location:  51.57°N, 101.9°W
Report Text: CYQV 281822Z AUTO 34009KT 7SM -SN BKN022 OVC037 M10/M11 A3002 RMK SLP203
Loading
Personal Weather Stations






























Interactive Weather Map New forecast layout! Learn more

10-Day Weather Forecast

Advertisements
Track Severe Weather on mobile